Varina, Iowa
Current Conditions -  °F | °C
As of 2:15 PM on Wednesday 26 Nov 2014 (Local Time) from KSLB Reporting Station
Broken Clouds Broken Clouds  
Wind Chill: 12°   Ceiling: 1300
Heat Index: 25°   Visibility: 7mi
Dew Point: 21°   Wind: 16mph
Humidity: 86%   Direction: 10°N
Pressure: 30.15"   Gusts: 29mph
Location:  42.66°N, 94.9°W
Report Text: KSLB 262015Z AUTO 01014G25KT 7SM BKN013 BKN042 BKN048 M04/M06 A3015 RMK AO2
Loading
Personal Weather Stations






























Interactive Weather Map New forecast layout! Learn more

10-Day Weather Forecast

Advertisements
Track Severe Weather on mobile